Time;durP1;ratioP1;P1;durP2;ratioP2;P2;SDS_P1;SDS_P2;PMS_P1;PMS_P2;Temp;Humidity;BMP_temperature;BMP_pressure;BME280_temperature;BME280_humidity;BME280_pressure;Samples;Min_cycle;Max_cycle;Signal;HPM_P1;HPM_P2
2023/08/28 00:01:01;;;;;;;1.70;1.00;;;18.90;99.90;;;;;;7388941;19;20138;-79
2023/08/28 00:03:27;;;;;;;1.33;1.08;;;18.80;99.90;;;;;;7385440;19;20171;-78
2023/08/28 00:05:53;;;;;;;2.05;1.08;;;18.80;99.90;;;;;;7385604;19;20617;-78
2023/08/28 00:08:18;;;;;;;0.90;0.82;;;18.70;99.90;;;;;;7385815;19;20170;-78
2023/08/28 00:10:44;;;;;;;1.83;1.20;;;18.70;99.90;;;;;;7389194;19;20162;-78
2023/08/28 00:13:10;;;;;;;1.17;1.08;;;18.70;99.90;;;;;;7385802;19;20131;-78
2023/08/28 00:15:36;;;;;;;2.53;1.20;;;18.60;99.90;;;;;;7388998;19;20138;-78
2023/08/28 00:18:02;;;;;;;1.40;0.75;;;18.40;99.90;;;;;;7387657;19;20154;-79
2023/08/28 00:20:28;;;;;;;1.55;1.13;;;18.50;99.90;;;;;;7385163;19;20455;-78
2023/08/28 00:22:53;;;;;;;2.45;0.73;;;18.60;99.90;;;;;;7394149;19;20153;-79
2023/08/28 00:25:19;;;;;;;1.27;1.10;;;18.20;99.90;;;;;;7393669;19;20127;-79
2023/08/28 00:27:45;;;;;;;2.40;1.20;;;18.30;99.90;;;;;;7394757;19;20210;-79
2023/08/28 00:30:11;;;;;;;1.65;1.42;;;18.40;99.90;;;;;;7393452;19;20165;-79
2023/08/28 00:32:38;;;;;;;8.15;2.28;;;18.40;99.90;;;;;;7393270;19;20479;-77
2023/08/28 00:35:05;;;;;;;1.83;1.00;;;18.30;99.90;;;;;;7391644;19;20511;-77
2023/08/28 00:37:31;;;;;;;1.42;0.90;;;18.50;99.90;;;;;;7394823;19;20134;-78
2023/08/28 00:39:57;;;;;;;1.50;0.95;;;18.40;99.90;;;;;;7393259;19;20797;-78
2023/08/28 00:42:23;;;;;;;3.28;0.90;;;18.40;99.90;;;;;;7393870;19;20131;-77
2023/08/28 00:44:49;;;;;;;1.25;0.98;;;18.40;99.90;;;;;;7392371;19;20167;-77
2023/08/28 00:47:15;;;;;;;2.20;0.60;;;18.50;99.90;;;;;;7393317;19;20142;-78
2023/08/28 00:49:42;;;;;;;1.23;0.90;;;18.40;99.90;;;;;;7392733;19;20157;-78
2023/08/28 00:52:08;;;;;;;1.98;1.00;;;18.40;99.90;;;;;;7391614;19;20153;-78
2023/08/28 00:54:34;;;;;;;1.20;0.90;;;18.40;99.90;;;;;;7393910;19;20135;-78
2023/08/28 00:57:02;;;;;;;1.73;0.75;;;18.40;99.90;;;;;;7392110;19;20150;-78
2023/08/28 00:59:28;;;;;;;1.05;0.95;;;18.30;99.90;;;;;;7394534;19;20142;-78
2023/08/28 01:01:54;;;;;;;2.25;0.90;;;18.40;99.90;;;;;;7390839;19;20126;-78
2023/08/28 01:04:20;;;;;;;1.63;0.73;;;18.40;99.90;;;;;;7389994;19;20177;-78
2023/08/28 01:07:13;;;;;;;1.42;0.82;;;18.40;99.90;;;;;;7391799;19;20747;-78
2023/08/28 01:09:49;;;;;;;2.05;0.95;;;18.40;99.90;;;;;;7395206;19;20194;-77
2023/08/28 01:12:20;;;;;;;1.30;0.90;;;18.40;99.90;;;;;;7394227;19;20221;-78
2023/08/28 01:15:16;;;;;;;2.47;0.93;;;18.10;99.90;;;;;;7392882;19;20780;-78
2023/08/28 01:17:43;;;;;;;1.05;0.65;;;17.70;99.90;;;;;;7392395;19;20573;-78
2023/08/28 01:20:15;;;;;;;2.05;0.85;;;17.40;99.90;;;;;;7391438;19;20644;-78
2023/08/28 01:22:59;;;;;;;2.15;0.70;;;17.20;99.90;;;;;;7393122;19;20231;-78
2023/08/28 01:25:31;;;;;;;1.65;0.75;;;17.30;99.90;;;;;;7391891;19;20153;-78
2023/08/28 01:27:58;;;;;;;1.30;0.98;;;17.30;99.90;;;;;;7392812;19;20583;-77
2023/08/28 01:30:24;;;;;;;2.53;0.85;;;17.10;99.90;;;;;;7392310;19;20210;-78
2023/08/28 01:32:50;;;;;;;1.45;0.80;;;17.20;99.90;;;;;;7388665;19;20147;-78
2023/08/28 01:35:24;;;;;;;2.05;0.90;;;17.40;99.90;;;;;;7394815;19;20130;-78
2023/08/28 01:38:05;;;;;;;1.63;0.80;;;17.50;99.90;;;;;;7390624;19;20178;-78
2023/08/28 01:40:43;;;;;;;2.60;0.88;;;17.70;99.90;;;;;;7391289;19;20150;-78
2023/08/28 01:43:12;;;;;;;2.50;1.00;;;17.90;99.90;;;;;;7392508;19;20583;-79
2023/08/28 01:45:39;;;;;;;1.02;0.85;;;17.70;99.90;;;;;;7388843;19;20161;-79
2023/08/28 01:48:06;;;;;;;3.17;1.10;;;17.50;99.90;;;;;;7391284;19;20154;-77
2023/08/28 01:50:32;;;;;;;2.03;0.80;;;17.90;99.90;;;;;;7392645;19;20146;-77
2023/08/28 01:52:57;;;;;;;1.80;0.90;;;18.10;99.90;;;;;;7392919;19;20143;-78
2023/08/28 01:55:44;;;;;;;4.72;1.00;;;18.10;99.90;;;;;;7391350;19;20589;-78
2023/08/28 01:58:11;;;;;;;4.32;1.15;;;17.90;99.90;;;;;;7392800;19;20588;-78
2023/08/28 02:00:37;;;;;;;1.95;0.90;;;18.00;99.90;;;;;;7391911;19;20139;-77
2023/08/28 02:03:04;;;;;;;1.00;0.90;;;18.30;99.90;;;;;;7388392;19;20146;-77
2023/08/28 02:05:29;;;;;;;1.13;0.90;;;18.40;99.90;;;;;;7388426;19;20150;-78
2023/08/28 02:07:55;;;;;;;1.63;0.90;;;18.40;99.90;;;;;;7391972;19;20510;-78
2023/08/28 02:10:21;;;;;;;1.85;0.90;;;18.40;99.90;;;;;;7393115;19;20141;-78
2023/08/28 02:12:47;;;;;;;2.50;1.00;;;18.30;99.90;;;;;;7391746;19;20494;-77
2023/08/28 02:15:13;;;;;;;3.67;1.10;;;18.10;99.90;;;;;;7390062;19;20167;-78
2023/08/28 02:17:38;;;;;;;2.35;1.17;;;18.00;99.90;;;;;;7389615;19;20563;-78
2023/08/28 02:20:05;;;;;;;1.52;1.00;;;17.80;99.90;;;;;;7393897;19;20130;-77
2023/08/28 02:22:30;;;;;;;1.27;0.95;;;18.00;99.90;;;;;;7391971;19;20130;-77
2023/08/28 02:24:58;;;;;;;1.90;0.90;;;17.80;99.90;;;;;;7391266;19;20158;-78
2023/08/28 02:27:24;;;;;;;1.05;0.90;;;17.40;99.90;;;;;;7388870;19;20147;-77
2023/08/28 02:29:50;;;;;;;1.40;1.10;;;17.30;99.90;;;;;;7391769;19;20130;-77
2023/08/28 02:32:16;;;;;;;1.33;1.10;;;17.30;99.90;;;;;;7392228;19;20153;-77
2023/08/28 02:34:43;;;;;;;8.75;1.73;;;17.40;99.90;;;;;;7392868;19;20210;-77
2023/08/28 02:37:09;;;;;;;1.77;1.08;;;17.50;99.90;;;;;;7390153;19;20495;-77
2023/08/28 02:39:34;;;;;;;1.55;1.10;;;17.30;99.90;;;;;;7391335;19;20130;-78
2023/08/28 02:42:00;;;;;;;1.50;0.98;;;17.30;99.90;;;;;;7390988;19;20147;-78
2023/08/28 02:44:26;;;;;;;1.30;1.10;;;17.30;99.90;;;;;;7389226;19;20595;-77
2023/08/28 02:46:51;;;;;;;3.58;1.00;;;17.30;99.90;;;;;;7389850;19;20513;-77
2023/08/28 02:49:19;;;;;;;1.02;0.93;;;17.70;99.90;;;;;;7386772;19;20522;-77
2023/08/28 02:51:45;;;;;;;4.75;1.20;;;17.80;99.90;;;;;;7389391;19;20139;-78
2023/08/28 02:54:11;;;;;;;1.73;1.00;;;18.10;99.90;;;;;;7390202;19;20588;-78
2023/08/28 02:56:38;;;;;;;2.15;1.08;;;18.20;99.90;;;;;;7390691;19;20138;-77
2023/08/28 02:59:05;;;;;;;1.70;1.30;;;18.30;99.90;;;;;;7391091;19;20476;-78
2023/08/28 03:01:37;;;;;;;1.25;1.13;;;18.30;99.90;;;;;;7389817;19;20618;-77
2023/08/28 03:04:06;;;;;;;1.60;0.93;;;18.10;99.90;;;;;;7389388;19;20157;-77
2023/08/28 03:06:36;;;;;;;2.78;1.20;;;18.20;99.90;;;;;;7389295;19;20158;-77
2023/08/28 03:09:02;;;;;;;1.33;1.00;;;18.30;99.90;;;;;;7391663;19;20175;-78
2023/08/28 03:11:31;;;;;;;4.45;0.88;;;18.20;99.90;;;;;;7391263;19;20141;-77
2023/08/28 03:13:57;;;;;;;1.05;0.95;;;18.20;99.90;;;;;;7390594;19;20134;-78
2023/08/28 03:16:23;;;;;;;4.30;1.15;;;18.20;99.90;;;;;;7390447;19;20468;-79
2023/08/28 03:18:49;;;;;;;1.98;1.00;;;18.10;99.90;;;;;;7390884;19;20146;-78
2023/08/28 03:21:15;;;;;;;1.38;1.10;;;18.20;99.90;;;;;;7389204;19;20134;-78
2023/08/28 03:23:40;;;;;;;2.17;1.08;;;18.20;99.90;;;;;;7389645;19;20583;-79
2023/08/28 03:26:07;;;;;;;2.92;1.00;;;18.00;99.90;;;;;;7386668;19;20191;-78
2023/08/28 03:28:33;;;;;;;0.93;0.80;;;18.10;99.90;;;;;;7390320;19;20561;-78
2023/08/28 03:30:59;;;;;;;1.88;1.15;;;18.30;99.90;;;;;;7388393;19;20134;-76
2023/08/28 03:33:26;;;;;;;2.25;1.10;;;18.10;99.90;;;;;;7389538;19;20191;-77
2023/08/28 03:35:52;;;;;;;1.90;1.08;;;18.20;99.90;;;;;;7390328;19;20131;-78
2023/08/28 03:38:18;;;;;;;3.35;0.82;;;18.20;99.90;;;;;;7386852;19;20718;-78
2023/08/28 03:40:44;;;;;;;2.47;0.88;;;17.80;99.90;;;;;;7390150;19;20611;-77
2023/08/28 03:43:10;;;;;;;3.10;0.90;;;18.00;99.90;;;;;;7388230;19;20603;-77
2023/08/28 03:45:37;;;;;;;2.28;0.90;;;18.10;99.90;;;;;;7386535;19;20142;-78
2023/08/28 03:48:02;;;;;;;1.67;1.08;;;18.10;99.90;;;;;;7389914;19;20213;-78
2023/08/28 03:50:31;;;;;;;3.67;1.92;;;18.00;99.90;;;;;;7391200;19;20596;-78
2023/08/28 03:52:58;;;;;;;3.25;1.10;;;18.00;99.90;;;;;;7388414;19;20138;-78
2023/08/28 03:55:24;;;;;;;2.35;1.13;;;18.10;99.90;;;;;;7386380;19;20146;-78
2023/08/28 03:57:51;;;;;;;2.08;1.20;;;18.00;99.90;;;;;;7390077;19;20150;-78
2023/08/28 04:00:18;;;;;;;1.45;0.98;;;18.10;99.90;;;;;;7388617;19;20143;-79
2023/08/28 04:02:46;;;;;;;2.63;1.20;;;18.10;99.90;;;;;;7387000;19;20719;-77
2023/08/28 04:05:13;;;;;;;2.13;1.13;;;18.10;99.90;;;;;;7384814;19;20182;-77
2023/08/28 04:07:40;;;;;;;1.40;1.00;;;18.00;99.90;;;;;;7390217;19;20779;-77
2023/08/28 04:10:07;;;;;;;1.58;1.00;;;18.00;99.90;;;;;;7389781;19;20146;-78
2023/08/28 04:12:33;;;;;;;2.05;1.23;;;18.00;99.90;;;;;;7388798;19;20646;-78
2023/08/28 04:14:59;;;;;;;0.98;0.93;;;18.00;99.90;;;;;;7387368;19;20518;-77
2023/08/28 04:17:25;;;;;;;1.20;0.98;;;18.10;99.90;;;;;;7388723;19;20157;-78
2023/08/28 04:19:52;;;;;;;2.92;1.25;;;18.20;99.90;;;;;;7388603;19;20162;-76
2023/08/28 04:22:19;;;;;;;2.20;1.30;;;18.10;99.90;;;;;;7389317;19;20165;-77
2023/08/28 04:24:45;;;;;;;1.58;1.17;;;18.00;99.90;;;;;;7387235;19;20222;-77
2023/08/28 04:27:12;;;;;;;1.85;1.23;;;18.10;99.90;;;;;;7388537;19;20150;-77
2023/08/28 04:29:38;;;;;;;2.13;1.65;;;17.90;99.90;;;;;;7388500;19;20162;-78
2023/08/28 04:32:04;;;;;;;1.85;1.23;;;17.90;99.90;;;;;;7386674;19;20143;-78
2023/08/28 04:34:30;;;;;;;1.52;1.20;;;17.90;99.90;;;;;;7386791;19;20143;-77
2023/08/28 04:36:56;;;;;;;5.50;1.30;;;17.90;99.90;;;;;;7386636;19;20185;-78
2023/08/28 04:39:23;;;;;;;2.58;1.45;;;17.90;99.90;;;;;;7387822;19;20127;-76
2023/08/28 04:41:52;;;;;;;2.13;1.75;;;17.90;99.90;;;;;;7387218;19;20155;-77
2023/08/28 04:44:18;;;;;;;3.25;1.45;;;17.80;99.90;;;;;;7387751;19;20137;-77
2023/08/28 04:46:47;;;;;;;1.58;1.30;;;17.70;99.90;;;;;;7386665;19;22386;-78
2023/08/28 04:49:13;;;;;;;2.95;1.23;;;17.80;99.90;;;;;;7386443;19;20137;-77
2023/08/28 04:51:39;;;;;;;2.33;1.38;;;17.80;99.90;;;;;;7386177;19;20139;-78
2023/08/28 04:54:05;;;;;;;2.58;1.25;;;17.80;99.90;;;;;;7385946;19;20162;-77
2023/08/28 04:56:30;;;;;;;2.10;1.42;;;17.70;99.90;;;;;;7385997;19;20150;-78
2023/08/28 04:58:56;;;;;;;1.77;1.10;;;17.40;99.90;;;;;;7387942;19;20146;-77
2023/08/28 05:01:22;;;;;;;1.85;1.25;;;17.60;99.90;;;;;;7385649;19;20157;-77
2023/08/28 05:03:47;;;;;;;2.42;1.38;;;17.70;99.90;;;;;;7385715;19;20134;-77
2023/08/28 05:06:13;;;;;;;2.58;1.40;;;17.90;99.90;;;;;;7387252;19;20160;-77
2023/08/28 05:08:39;;;;;;;1.58;1.25;;;17.90;99.90;;;;;;7390898;19;20161;-77
2023/08/28 05:11:05;;;;;;;1.40;1.30;;;17.80;99.90;;;;;;7393785;19;20146;-76
2023/08/28 05:13:31;;;;;;;3.85;1.67;;;17.90;99.90;;;;;;7393123;19;20135;-76
2023/08/28 05:15:56;;;;;;;3.72;1.60;;;17.90;99.90;;;;;;7394150;19;20130;-76
2023/08/28 05:18:23;;;;;;;1.83;1.50;;;18.00;99.90;;;;;;7392303;19;20587;-77
2023/08/28 05:20:49;;;;;;;2.60;1.77;;;18.00;99.90;;;;;;7394031;19;20148;-76
2023/08/28 05:23:14;;;;;;;2.13;1.30;;;17.90;99.90;;;;;;7391471;19;20698;-78
2023/08/28 05:25:40;;;;;;;1.73;1.25;;;17.90;99.90;;;;;;7391733;19;20143;-78
2023/08/28 05:28:06;;;;;;;5.97;2.10;;;17.90;99.90;;;;;;7392991;19;20130;-80
2023/08/28 05:30:32;;;;;;;2.05;1.60;;;17.90;99.90;;;;;;7391290;19;20202;-77
2023/08/28 05:32:57;;;;;;;2.53;1.35;;;17.90;99.90;;;;;;7390264;19;20143;-77
2023/08/28 05:35:23;;;;;;;2.55;1.60;;;17.80;99.90;;;;;;7391489;19;20154;-77
2023/08/28 05:37:51;;;;;;;3.25;2.17;;;17.80;99.90;;;;;;7391444;19;20515;-78
2023/08/28 05:40:17;;;;;;;1.60;1.50;;;17.80;99.90;;;;;;7391494;19;20580;-79
2023/08/28 05:42:44;;;;;;;2.00;1.40;;;17.80;99.90;;;;;;7390070;19;20138;-79
2023/08/28 05:45:10;;;;;;;2.28;1.67;;;17.90;99.90;;;;;;7390115;19;20916;-78
2023/08/28 05:47:37;;;;;;;2.47;1.60;;;17.90;99.90;;;;;;7391736;19;20160;-78
2023/08/28 05:50:03;;;;;;;2.65;1.75;;;17.90;99.90;;;;;;7394032;19;20553;-79
2023/08/28 05:52:29;;;;;;;1.65;1.35;;;17.90;99.90;;;;;;7391649;19;21081;-79
2023/08/28 05:54:55;;;;;;;3.30;1.60;;;17.90;99.90;;;;;;7391634;19;20166;-78
2023/08/28 05:57:23;;;;;;;2.28;1.70;;;17.90;99.90;;;;;;7392804;19;20143;-78
2023/08/28 05:59:51;;;;;;;3.88;1.77;;;17.80;99.90;;;;;;7390651;19;20127;-80
2023/08/28 06:02:17;;;;;;;3.00;1.67;;;17.80;99.90;;;;;;7393021;19;20150;-79
2023/08/28 06:04:52;;;;;;;3.78;1.73;;;17.70;99.90;;;;;;7389987;19;20549;-79
2023/08/28 06:07:18;;;;;;;3.60;1.83;;;17.70;99.90;;;;;;7392356;19;20152;-79
2023/08/28 06:09:44;;;;;;;3.10;2.20;;;17.70;99.90;;;;;;7392159;19;20699;-77
2023/08/28 06:12:10;;;;;;;2.55;1.67;;;17.70;99.90;;;;;;7393662;19;20623;-78
2023/08/28 06:14:36;;;;;;;4.22;2.35;;;17.70;99.90;;;;;;7392130;19;20146;-79
2023/08/28 06:17:03;;;;;;;3.83;1.80;;;17.80;99.90;;;;;;7390026;19;20306;-79
2023/08/28 06:19:29;;;;;;;2.45;1.90;;;17.70;99.90;;;;;;7392993;19;20138;-78
2023/08/28 06:21:55;;;;;;;4.20;2.30;;;17.70;99.90;;;;;;7393066;19;20146;-79
2023/08/28 06:24:21;;;;;;;4.93;2.75;;;17.80;99.90;;;;;;7389865;19;20225;-79
2023/08/28 06:26:46;;;;;;;9.40;2.78;;;17.70;99.90;;;;;;7393260;19;20675;-77
2023/08/28 06:29:12;;;;;;;3.22;2.15;;;17.80;99.90;;;;;;7393986;19;20133;-79
2023/08/28 06:31:38;;;;;;;3.25;2.40;;;17.80;99.90;;;;;;7392764;19;20147;-78
2023/08/28 06:34:04;;;;;;;2.42;2.15;;;17.90;99.90;;;;;;7393865;19;20134;-78
2023/08/28 06:36:30;;;;;;;6.07;2.58;;;18.00;99.90;;;;;;7392831;19;20243;-77
2023/08/28 06:38:57;;;;;;;4.05;2.45;;;18.00;99.90;;;;;;7391000;19;20138;-77
2023/08/28 06:41:23;;;;;;;7.10;2.95;;;18.00;99.90;;;;;;7392435;19;20131;-78
2023/08/28 06:43:49;;;;;;;3.08;2.25;;;18.00;99.90;;;;;;7391626;19;20605;-79
2023/08/28 06:46:16;;;;;;;5.95;2.70;;;18.10;99.90;;;;;;7390385;19;20190;-80
2023/08/28 06:48:45;;;;;;;4.03;2.80;;;18.00;99.90;;;;;;7394098;19;20161;-80
2023/08/28 06:51:14;;;;;;;3.70;2.42;;;17.80;99.90;;;;;;7392752;19;20178;-80
2023/08/28 06:53:39;;;;;;;3.22;2.65;;;17.70;99.90;;;;;;7392454;19;20150;-79
2023/08/28 06:56:05;;;;;;;2.30;2.08;;;17.80;99.90;;;;;;7391707;19;20143;-80
2023/08/28 06:58:31;;;;;;;4.43;2.75;;;17.80;99.90;;;;;;7390999;19;20605;-79
2023/08/28 07:00:58;;;;;;;7.57;2.78;;;17.80;99.90;;;;;;7390512;19;20134;-78
2023/08/28 07:03:23;;;;;;;3.50;2.40;;;17.90;99.90;;;;;;7391034;19;20202;-79
2023/08/28 07:05:49;;;;;;;3.35;2.60;;;17.90;99.90;;;;;;7387772;19;20148;-79
2023/08/28 07:08:15;;;;;;;3.13;2.70;;;17.80;99.90;;;;;;7391983;19;20123;-80
2023/08/28 07:10:42;;;;;;;3.17;2.88;;;17.90;99.90;;;;;;7391414;19;20154;-80
2023/08/28 07:13:08;;;;;;;5.75;3.03;;;17.90;99.90;;;;;;7386248;19;20149;-79
2023/08/28 07:15:34;;;;;;;3.53;2.65;;;17.90;99.90;;;;;;7390943;19;20146;-80
2023/08/28 07:18:00;;;;;;;4.28;2.85;;;17.90;99.90;;;;;;7391019;19;20149;-80
2023/08/28 07:20:26;;;;;;;3.33;2.80;;;17.90;99.90;;;;;;7390557;19;20147;-78
2023/08/28 07:22:53;;;;;;;4.30;2.80;;;17.90;99.90;;;;;;7391679;19;21614;-81
2023/08/28 07:25:22;;;;;;;4.28;2.60;;;17.90;99.90;;;;;;7388987;19;20173;-84
2023/08/28 07:27:49;;;;;;;4.32;2.80;;;17.90;99.90;;;;;;7390817;19;20146;-81
2023/08/28 07:30:15;;;;;;;5.00;2.83;;;18.00;99.90;;;;;;7385724;19;20130;-78
2023/08/28 07:32:41;;;;;;;3.90;2.50;;;17.90;99.90;;;;;;7388620;19;20173;-77
2023/08/28 07:35:08;;;;;;;4.53;2.63;;;18.00;99.90;;;;;;7388185;19;20130;-77
2023/08/28 07:37:34;;;;;;;4.93;2.55;;;18.00;99.90;;;;;;7388866;19;20147;-78
2023/08/28 07:40:02;;;;;;;2.83;2.35;;;17.90;99.90;;;;;;7387712;19;20176;-77
2023/08/28 07:42:28;;;;;;;5.57;2.35;;;18.00;99.90;;;;;;7389800;19;20142;-79
2023/08/28 07:44:54;;;;;;;4.03;2.03;;;17.90;99.90;;;;;;7388646;19;20606;-78
2023/08/28 07:47:22;;;;;;;3.90;2.10;;;17.90;99.90;;;;;;7390650;19;20149;-79
2023/08/28 07:49:48;;;;;;;3.33;1.85;;;17.90;99.90;;;;;;7388716;19;20164;-77
2023/08/28 07:52:14;;;;;;;3.63;2.20;;;18.00;99.90;;;;;;7389277;19;20565;-77
2023/08/28 07:54:40;;;;;;;3.08;2.00;;;18.10;99.90;;;;;;7388709;19;20138;-78
2023/08/28 07:57:06;;;;;;;2.47;2.22;;;18.20;99.90;;;;;;7388626;19;20147;-79
2023/08/28 07:59:32;;;;;;;3.08;2.00;;;18.30;99.90;;;;;;7386791;19;20146;-79
2023/08/28 08:01:58;;;;;;;2.25;1.80;;;18.30;99.90;;;;;;7388420;19;20138;-78
2023/08/28 08:04:25;;;;;;;2.47;1.90;;;18.40;99.90;;;;;;7388162;19;20146;-79
2023/08/28 08:06:51;;;;;;;3.47;2.08;;;18.30;99.90;;;;;;7386500;19;20142;-79
2023/08/28 08:09:17;;;;;;;3.10;2.17;;;18.30;99.90;;;;;;7388300;19;20471;-77
2023/08/28 08:11:43;;;;;;;2.58;1.70;;;18.30;99.90;;;;;;7387996;19;20767;-77
2023/08/28 08:14:09;;;;;;;3.65;1.95;;;18.30;99.90;;;;;;7388758;19;20134;-77
2023/08/28 08:16:35;;;;;;;2.10;1.80;;;18.30;99.90;;;;;;7387504;19;20134;-80
2023/08/28 08:19:00;;;;;;;1.85;1.50;;;18.40;99.90;;;;;;7389672;19;20134;-78
2023/08/28 08:21:26;;;;;;;2.90;1.80;;;18.30;99.90;;;;;;7387284;19;20146;-79
2023/08/28 08:23:52;;;;;;;2.30;1.67;;;18.30;99.90;;;;;;7389850;19;20177;-79
2023/08/28 08:26:21;;;;;;;2.15;1.48;;;18.30;99.90;;;;;;7384423;19;20151;-78
2023/08/28 08:28:48;;;;;;;1.95;1.42;;;18.50;99.90;;;;;;7387720;19;20624;-77
2023/08/28 08:31:13;;;;;;;3.15;1.60;;;18.50;99.90;;;;;;7390196;19;20564;-78
2023/08/28 08:33:39;;;;;;;2.42;1.40;;;18.40;99.90;;;;;;7387680;19;20157;-76
2023/08/28 08:36:08;;;;;;;2.42;1.40;;;18.30;99.90;;;;;;7387801;19;20135;-79
2023/08/28 08:38:33;;;;;;;3.78;1.48;;;18.30;99.90;;;;;;7385782;19;20166;-79
2023/08/28 08:40:59;;;;;;;1.45;1.20;;;18.40;99.90;;;;;;7391041;19;20131;-78
2023/08/28 08:43:25;;;;;;;2.17;1.20;;;18.30;99.90;;;;;;7393887;19;20147;-77
2023/08/28 08:45:59;;;;;;;2.17;1.38;;;18.50;99.90;;;;;;7391958;19;20172;-79
2023/08/28 08:48:25;;;;;;;3.17;1.33;;;18.50;99.90;;;;;;7394080;19;20151;-79
2023/08/28 08:51:00;;;;;;;1.80;1.50;;;18.50;99.90;;;;;;7394880;19;20463;-79
2023/08/28 08:53:33;;;;;;;3.63;1.42;;;18.50;99.90;;;;;;7394353;19;20155;-77
2023/08/28 08:56:03;;;;;;;2.13;1.85;;;18.40;99.90;;;;;;7395883;19;20176;-79
2023/08/28 08:58:30;;;;;;;2.50;1.50;;;18.30;99.90;;;;;;7391456;19;20168;-77
2023/08/28 09:00:57;;;;;;;2.67;1.27;;;18.20;99.90;;;;;;7394273;19;20226;-78
2023/08/28 09:03:24;;;;;;;3.90;2.08;;;18.30;99.90;;;;;;7392044;19;20147;-76
2023/08/28 09:05:50;;;;;;;1.92;1.10;;;18.40;99.90;;;;;;7391116;19;20152;-76
2023/08/28 09:08:18;;;;;;;1.58;1.30;;;18.30;99.90;;;;;;7391214;19;20151;-77
2023/08/28 09:10:47;;;;;;;2.67;1.30;;;18.20;99.90;;;;;;7393996;19;20626;-77
2023/08/28 09:13:13;;;;;;;3.33;1.20;;;18.20;99.90;;;;;;7391500;19;20143;-78
2023/08/28 09:15:39;;;;;;;2.67;1.17;;;18.30;99.90;;;;;;7395534;19;20134;-77
2023/08/28 09:18:05;;;;;;;1.90;1.20;;;18.30;99.90;;;;;;7394857;19;20481;-78
2023/08/28 09:20:31;;;;;;;3.05;1.58;;;18.40;99.90;;;;;;7393913;19;20146;-78
2023/08/28 09:22:57;;;;;;;2.78;1.30;;;18.50;99.90;;;;;;7393886;19;20440;-76
2023/08/28 09:25:23;;;;;;;2.03;1.33;;;18.60;99.90;;;;;;7392503;19;20556;-76
2023/08/28 09:27:52;;;;;;;4.75;1.50;;;18.60;99.90;;;;;;7392789;19;20153;-77
2023/08/28 09:30:32;;;;;;;4.53;1.88;;;18.60;99.90;;;;;;7391594;19;20150;-77
2023/08/28 09:33:00;;;;;;;2.95;1.30;;;18.70;99.90;;;;;;7393659;19;20146;-76
2023/08/28 09:35:38;;;;;;;3.42;1.40;;;18.60;99.90;;;;;;7389489;19;20194;-77
2023/08/28 09:38:04;;;;;;;2.47;1.67;;;18.50;99.90;;;;;;7393028;19;20206;-76
2023/08/28 09:40:38;;;;;;;1.73;1.30;;;18.50;99.90;;;;;;7392087;19;20479;-77
2023/08/28 09:43:14;;;;;;;1.80;1.27;;;18.60;99.90;;;;;;7392691;19;20137;-77
2023/08/28 09:45:42;;;;;;;4.43;1.42;;;18.70;99.90;;;;;;7390322;19;20269;-77
2023/08/28 09:48:08;;;;;;;3.55;1.50;;;18.60;99.90;;;;;;7389326;19;20462;-75
2023/08/28 09:50:37;;;;;;;1.70;1.00;;;18.70;99.90;;;;;;7393449;19;20146;-77
2023/08/28 09:53:13;;;;;;;2.20;1.52;;;18.70;99.90;;;;;;7387467;19;20395;-77
2023/08/28 09:55:40;;;;;;;6.03;2.08;;;18.80;99.90;;;;;;7390883;19;20238;-77
2023/08/28 09:58:10;;;;;;;1.90;1.45;;;18.80;99.90;;;;;;7392112;19;20130;-76
2023/08/28 10:00:38;;;;;;;2.50;1.73;;;18.70;99.90;;;;;;7390805;19;20135;-76
2023/08/28 10:03:06;;;;;;;3.47;1.33;;;18.70;99.90;;;;;;7390616;19;20147;-76
2023/08/28 10:05:35;;;;;;;2.25;1.60;;;18.80;99.90;;;;;;7389782;19;20151;-76
2023/08/28 10:08:04;;;;;;;2.05;1.30;;;19.00;99.90;;;;;;7393000;19;20173;-75
2023/08/28 10:10:30;;;;;;;2.00;1.23;;;19.00;99.90;;;;;;7389117;19;20145;-73
2023/08/28 10:12:56;;;;;;;1.15;0.98;;;19.00;99.90;;;;;;7388628;19;20222;-77
2023/08/28 10:15:22;;;;;;;2.13;1.42;;;18.80;99.90;;;;;;7386531;19;20138;-77
2023/08/28 10:17:49;;;;;;;2.08;1.20;;;18.80;99.90;;;;;;7390646;19;20502;-75
2023/08/28 10:20:16;;;;;;;1.40;1.00;;;18.90;99.90;;;;;;7389234;19;20579;-75
2023/08/28 10:22:44;;;;;;;1.85;1.10;;;18.90;99.90;;;;;;7390430;19;20143;-75
2023/08/28 10:25:13;;;;;;;4.40;1.10;;;19.00;99.90;;;;;;7389589;19;20633;-77
2023/08/28 10:27:40;;;;;;;1.50;1.00;;;19.10;99.90;;;;;;7391486;19;20387;-75
2023/08/28 10:30:09;;;;;;;3.70;1.15;;;19.30;99.90;;;;;;7390757;19;20139;-76
2023/08/28 10:32:35;;;;;;;1.58;1.10;;;19.30;99.90;;;;;;7390343;19;20162;-76
2023/08/28 10:35:02;;;;;;;1.77;1.27;;;19.30;99.90;;;;;;7390559;19;20921;-74
2023/08/28 10:37:30;;;;;;;1.73;1.00;;;19.10;99.90;;;;;;7388376;19;20615;-76
2023/08/28 10:40:01;;;;;;;2.47;1.10;;;18.90;99.90;;;;;;7390085;19;20150;-77
2023/08/28 10:42:28;;;;;;;1.20;1.10;;;19.00;99.90;;;;;;7391549;19;20183;-76
2023/08/28 10:44:54;;;;;;;2.38;1.17;;;19.10;99.90;;;;;;7389093;19;20143;-76
2023/08/28 10:47:20;;;;;;;1.45;1.05;;;19.30;99.90;;;;;;7389691;19;20541;-76
2023/08/28 10:49:46;;;;;;;1.45;1.05;;;19.50;99.90;;;;;;7389899;19;20139;-76
2023/08/28 10:52:12;;;;;;;1.95;0.98;;;19.50;99.90;;;;;;7390255;19;20592;-76
2023/08/28 10:54:40;;;;;;;2.42;1.08;;;19.60;99.90;;;;;;7385935;19;20150;-77
2023/08/28 10:57:10;;;;;;;2.13;1.75;;;19.70;99.90;;;;;;7390302;19;20141;-77
2023/08/28 10:59:45;;;;;;;1.10;0.85;;;19.80;99.90;;;;;;7389776;19;20135;-76
2023/08/28 11:02:12;;;;;;;1.35;0.73;;;19.90;99.90;;;;;;7389331;19;20138;-77
2023/08/28 11:04:40;;;;;;;1.17;0.80;;;19.90;99.90;;;;;;7387811;19;20615;-75
2023/08/28 11:07:27;;;;;;;0.90;0.80;;;19.70;99.90;;;;;;7390116;19;20146;-77
2023/08/28 11:10:19;;;;;;;1.45;0.90;;;19.70;99.90;;;;;;7390106;19;20521;-78
2023/08/28 11:12:59;;;;;;;1.27;0.77;;;19.60;99.90;;;;;;7390931;19;20142;-75
2023/08/28 11:15:30;;;;;;;0.73;0.70;;;19.50;99.90;;;;;;7390300;19;20145;-76
2023/08/28 11:18:37;;;;;;;0.55;0.50;;;19.50;99.90;;;;;;7387641;19;20474;-76
2023/08/28 11:21:06;;;;;;;1.52;1.00;;;19.50;99.90;;;;;;7383640;19;20275;-76
2023/08/28 11:23:36;;;;;;;1.45;1.00;;;19.50;99.90;;;;;;7381075;19;20146;-78
2023/08/28 11:26:23;;;;;;;0.98;0.70;;;19.50;99.90;;;;;;7384219;19;20146;-78
2023/08/28 11:28:50;;;;;;;0.75;0.68;;;19.50;99.90;;;;;;7385767;19;20575;-78
2023/08/28 11:31:19;;;;;;;0.68;0.68;;;19.50;99.90;;;;;;7386267;19;20134;-76
2023/08/28 11:33:52;;;;;;;2.80;0.82;;;19.40;99.90;;;;;;7387604;19;20589;-77
2023/08/28 11:36:18;;;;;;;2.00;0.90;;;19.40;99.90;;;;;;7388590;19;20577;-77
2023/08/28 11:38:45;;;;;;;1.70;1.30;;;19.50;99.90;;;;;;7390583;19;20609;-76
2023/08/28 11:41:12;;;;;;;2.10;1.05;;;19.50;99.90;;;;;;7388963;19;20138;-77
2023/08/28 11:43:40;;;;;;;1.45;1.00;;;19.40;99.90;;;;;;7387627;19;20225;-77
2023/08/28 11:46:06;;;;;;;3.53;1.35;;;19.40;99.90;;;;;;7388615;19;20227;-76
2023/08/28 11:48:37;;;;;;;2.08;0.95;;;19.60;99.90;;;;;;7387577;19;20149;-77
2023/08/28 11:51:04;;;;;;;1.85;1.38;;;19.70;99.90;;;;;;7390064;19;20127;-76
2023/08/28 11:53:36;;;;;;;1.27;1.00;;;19.80;99.90;;;;;;7389262;19;20206;-77
2023/08/28 11:56:03;;;;;;;2.67;1.10;;;19.60;99.90;;;;;;7389113;19;20653;-76
2023/08/28 11:58:31;;;;;;;1.63;0.98;;;19.60;99.90;;;;;;7390873;19;20544;-77
2023/08/28 12:00:58;;;;;;;1.40;0.95;;;19.50;99.90;;;;;;7389078;19;20218;-77
2023/08/28 12:03:24;;;;;;;1.27;1.17;;;19.40;99.90;;;;;;7389394;19;20135;-75
2023/08/28 12:05:59;;;;;;;1.55;1.00;;;19.30;99.90;;;;;;7384160;19;20141;-77
2023/08/28 12:08:25;;;;;;;1.70;1.20;;;19.30;99.90;;;;;;7386833;19;20134;-76
2023/08/28 12:10:51;;;;;;;0.80;0.80;;;19.40;99.90;;;;;;7389496;19;20598;-77
2023/08/28 12:13:20;;;;;;;1.00;0.90;;;19.40;99.90;;;;;;7387577;19;20151;-76
2023/08/28 12:15:46;;;;;;;2.90;1.05;;;19.40;99.90;;;;;;7390455;19;20157;-76
2023/08/28 12:18:11;;;;;;;3.80;0.90;;;19.40;99.90;;;;;;7393480;19;20127;-77
2023/08/28 12:20:37;;;;;;;1.70;1.13;;;19.40;99.90;;;;;;7396111;19;20141;-77
2023/08/28 12:23:03;;;;;;;1.40;1.00;;;19.30;99.90;;;;;;7394501;19;20134;-76
2023/08/28 12:25:43;;;;;;;3.75;1.02;;;19.10;99.90;;;;;;7393696;19;20197;-76
2023/08/28 12:28:13;;;;;;;2.40;1.20;;;19.10;99.90;;;;;;7396721;19;20590;-76
2023/08/28 12:30:39;;;;;;;1.77;0.90;;;19.20;99.90;;;;;;7391285;19;20154;-76
2023/08/28 12:33:07;;;;;;;1.83;1.20;;;19.20;99.90;;;;;;7393421;19;20186;-77
2023/08/28 12:35:40;;;;;;;1.90;0.95;;;19.30;99.90;;;;;;7393584;19;20146;-76
2023/08/28 12:38:06;;;;;;;1.30;1.00;;;19.20;99.90;;;;;;7394418;19;20146;-76
2023/08/28 12:40:36;;;;;;;1.35;1.05;;;19.10;99.90;;;;;;7393367;19;20138;-76
2023/08/28 12:43:08;;;;;;;2.67;1.20;;;19.10;99.90;;;;;;7393569;19;20157;-75
2023/08/28 12:45:34;;;;;;;2.03;1.33;;;19.20;99.90;;;;;;7391894;19;20498;-76
2023/08/28 12:48:01;;;;;;;1.95;1.05;;;19.10;99.90;;;;;;7392487;19;20138;-75
2023/08/28 12:50:27;;;;;;;1.90;1.00;;;19.20;99.90;;;;;;7394284;19;20134;-78